createdAt,value
2017-05-07T00:00:13.436Z,99.65
2017-05-07T00:01:25.964Z,99.93
2017-05-07T00:02:38.511Z,99.17
2017-05-07T00:03:51.069Z,99.55
2017-05-07T00:05:03.293Z,99.65
2017-05-07T00:06:15.540Z,99.46
2017-05-07T00:07:28.112Z,99.36
2017-05-07T00:08:40.654Z,99.36
2017-05-07T00:09:52.883Z,99.46
2017-05-07T00:11:05.120Z,99.36
2017-05-07T00:12:17.655Z,99.99
2017-05-07T00:13:29.620Z,99.84
2017-05-07T00:14:41.862Z,99.74
2017-05-07T00:15:54.384Z,99.74
2017-05-07T00:17:06.936Z,99.84
2017-05-07T00:18:19.196Z,99.65
2017-05-07T00:19:31.727Z,99.84
2017-05-07T00:20:43.949Z,99.93
2017-05-07T00:21:56.187Z,99.99
2017-05-07T00:23:08.440Z,99.65
2017-05-07T00:24:20.650Z,99.74
2017-05-07T00:25:32.550Z,99.93
2017-05-07T00:26:45.093Z,99.84
2017-05-07T00:27:57.651Z,99.84
2017-05-07T00:29:09.562Z,98.98
2017-05-07T00:30:22.115Z,99.36
2017-05-07T00:31:34.396Z,99.36
2017-05-07T00:32:46.947Z,99.55
2017-05-07T00:33:59.496Z,99.65
2017-05-07T00:35:12.026Z,99.55
2017-05-07T00:36:24.271Z,99.36
2017-05-07T00:37:36.818Z,99.46
2017-05-07T00:38:49.360Z,99.46
2017-05-07T00:40:01.880Z,99.46
2017-05-07T00:41:14.431Z,99.55
2017-05-07T00:42:27.008Z,99.55
2017-05-07T00:43:39.563Z,99.46
2017-05-07T00:44:52.109Z,99.36
2017-05-07T00:46:04.677Z,99.36
2017-05-07T00:47:16.873Z,99.46
2017-05-07T00:48:29.106Z,99.08
2017-05-07T00:49:41.651Z,99.36
2017-05-07T00:50:54.194Z,98.98
2017-05-07T00:52:06.706Z,99.17
2017-05-07T00:53:18.939Z,99.36
2017-05-07T00:54:31.181Z,99.46
2017-05-07T00:55:43.705Z,99.22
2017-05-07T00:56:56.249Z,99.03
2017-05-07T00:58:08.777Z,99.22
2017-05-07T00:59:20.999Z,99.13
2017-05-07T01:00:32.910Z,99.69
2017-05-07T01:01:45.436Z,99.6
2017-05-07T01:02:57.674Z,99.41
2017-05-07T01:04:09.927Z,99.41
2017-05-07T01:05:22.173Z,99.22
2017-05-07T01:06:34.386Z,99.22
2017-05-07T01:07:46.341Z,99.22
2017-05-07T01:08:58.874Z,99.32
2017-05-07T01:10:11.403Z,99.41
2017-05-07T01:11:23.945Z,99.32
2017-05-07T01:12:36.473Z,99.51
2017-05-07T01:13:49.008Z,99.22
2017-05-07T01:15:01.836Z,99.22
2017-05-07T01:16:13.775Z,99.51
2017-05-07T01:17:25.998Z,99.41
2017-05-07T01:18:37.952Z,99.41
2017-05-07T01:19:50.498Z,99.22
2017-05-07T01:21:02.716Z,99.41
2017-05-07T01:22:14.655Z,99.13
2017-05-07T01:23:27.183Z,99.22
2017-05-07T01:24:39.722Z,99.32
2017-05-07T01:25:52.242Z,99.41
2017-05-07T01:27:04.774Z,99.22
2017-05-07T01:28:17.346Z,99.32
2017-05-07T01:29:29.318Z,99.32
2017-05-07T01:30:41.861Z,99.22
2017-05-07T01:31:54.126Z,99.51
2017-05-07T01:33:06.671Z,99.41
2017-05-07T01:34:18.895Z,99.32
2017-05-07T01:35:30.542Z,99.51
2017-05-07T01:36:43.068Z,99.41
2017-05-07T01:37:55.302Z,99.46
2017-05-07T01:39:07.549Z,99.32
2017-05-07T01:40:19.818Z,99.27
2017-05-07T01:41:32.042Z,99.36
2017-05-07T01:42:44.292Z,99.32
2017-05-07T01:43:56.836Z,99.27
2017-05-07T01:45:09.355Z,99.27
2017-05-07T01:46:21.597Z,99.17
2017-05-07T01:47:33.829Z,99.27
2017-05-07T01:48:46.368Z,99.6
2017-05-07T01:49:58.939Z,99.22
2017-05-07T01:51:11.185Z,99.41
2017-05-07T01:52:23.414Z,99.32
2017-05-07T01:53:35.656Z,99.27
2017-05-07T01:54:47.599Z,99.32
2017-05-07T01:56:00.144Z,99.27
2017-05-07T01:57:12.660Z,99.17
2017-05-07T01:58:25.132Z,99.27
2017-05-07T01:59:37.690Z,99.17
2017-05-07T02:00:50.235Z,99.17
2017-05-07T02:02:02.782Z,99.17
2017-05-07T02:03:15.051Z,99.17
2017-05-07T02:04:27.840Z,99.22
2017-05-07T02:05:40.382Z,99.41
2017-05-07T02:06:52.928Z,99.27
2017-05-07T02:08:05.479Z,99.41
2017-05-07T02:09:17.730Z,99.36
2017-05-07T02:10:30.244Z,99.32
2017-05-07T02:11:42.787Z,99.36
2017-05-07T02:12:55.294Z,99.27
2017-05-07T02:14:07.577Z,99.27
2017-05-07T02:15:19.853Z,99.6
2017-05-07T02:16:32.071Z,99.51
2017-05-07T02:17:44.620Z,99.17
2017-05-07T02:18:57.163Z,99.46
2017-05-07T02:20:09.694Z,99.41
2017-05-07T02:21:21.633Z,99.32
2017-05-07T02:22:34.183Z,99.17
2017-05-07T02:23:46.424Z,99.03
2017-05-07T02:24:58.971Z,98.94
2017-05-07T02:26:11.520Z,99.13
2017-05-07T02:27:23.759Z,98.65
2017-05-07T02:28:36.005Z,98.94
2017-05-07T02:29:48.259Z,99.13
2017-05-07T02:31:00.804Z,99.13
2017-05-07T02:32:13.346Z,98.84
2017-05-07T02:33:25.887Z,99.03
2017-05-07T02:34:38.144Z,99.13
2017-05-07T02:35:50.388Z,98.94
2017-05-07T02:37:02.929Z,99.22
2017-05-07T02:38:15.476Z,98.94
2017-05-07T02:39:27.696Z,99.03
2017-05-07T02:40:40.239Z,99.22
2017-05-07T02:41:52.712Z,99.22
2017-05-07T02:43:05.255Z,99.22
2017-05-07T02:44:17.484Z,99.03
2017-05-07T02:45:30.022Z,98.84
2017-05-07T02:46:42.547Z,99.03
2017-05-07T02:47:55.089Z,98.84
2017-05-07T02:49:07.618Z,98.74
2017-05-07T02:50:20.156Z,99.13
2017-05-07T02:51:32.680Z,98.98
2017-05-07T02:52:45.201Z,99.13
2017-05-07T02:53:57.744Z,99.08
2017-05-07T02:55:09.950Z,99.03
2017-05-07T02:56:22.189Z,99.13
2017-05-07T02:57:34.435Z,99.03
2017-05-07T02:58:46.953Z,99.13
2017-05-07T02:59:59.476Z,99.13
2017-05-07T03:01:12.030Z,98.74
2017-05-07T03:02:24.302Z,98.74
2017-05-07T03:03:36.844Z,98.74
2017-05-07T03:04:49.065Z,98.74
2017-05-07T03:06:01.604Z,98.94
2017-05-07T03:07:13.828Z,99.27
2017-05-07T03:08:26.385Z,99.27
2017-05-07T03:09:38.621Z,99.32
2017-05-07T03:10:51.161Z,99.32
2017-05-07T03:12:03.656Z,99.22
2017-05-07T03:13:15.611Z,99.32
2017-05-07T03:14:28.166Z,99.32
2017-05-07T03:15:40.707Z,99.22
2017-05-07T03:16:53.266Z,99.32
2017-05-07T03:18:05.763Z,99.51
2017-05-07T03:19:17.990Z,99.32
2017-05-07T03:20:30.539Z,99.51
2017-05-07T03:21:43.075Z,99.41
2017-05-07T03:22:55.599Z,99.32
2017-05-07T03:24:08.151Z,99.32
2017-05-07T03:25:20.370Z,99.32
2017-05-07T03:26:32.608Z,99.41
2017-05-07T03:27:45.143Z,99.22
2017-05-07T03:28:57.703Z,99.32
2017-05-07T03:30:10.250Z,99.32
2017-05-07T03:31:22.795Z,99.41
2017-05-07T03:32:35.313Z,99.32
2017-05-07T03:33:47.867Z,99.32
2017-05-07T03:35:00.412Z,99.32
2017-05-07T03:36:12.609Z,99.22
2017-05-07T03:37:25.154Z,99.32
2017-05-07T03:38:37.368Z,99.22
2017-05-07T03:39:49.896Z,99.32
2017-05-07T03:41:02.417Z,99.41
2017-05-07T03:42:14.937Z,99.41
2017-05-07T03:43:27.480Z,99.22
2017-05-07T03:44:39.715Z,99.32
2017-05-07T03:45:52.218Z,99.22
2017-05-07T03:47:04.747Z,99.41
2017-05-07T03:48:16.988Z,98.84
2017-05-07T03:49:29.510Z,99.32
2017-05-07T03:50:42.051Z,99.41
2017-05-07T03:51:54.605Z,99.32
2017-05-07T03:53:07.126Z,99.6
2017-05-07T03:54:19.640Z,99.41
2017-05-07T03:55:31.561Z,99.32
2017-05-07T03:56:44.070Z,99.41
2017-05-07T03:57:56.284Z,99.27
2017-05-07T03:59:08.831Z,99.32
2017-05-07T04:00:21.370Z,99.32
2017-05-07T04:01:33.597Z,98.84
2017-05-07T04:02:46.143Z,99.41
2017-05-07T04:03:58.686Z,98.74
2017-05-07T04:05:10.885Z,99.13
2017-05-07T04:06:23.409Z,98.65
2017-05-07T04:07:35.976Z,99.03
2017-05-07T04:08:48.766Z,98.88
2017-05-07T04:10:01.265Z,98.98
2017-05-07T04:11:13.511Z,99.32
2017-05-07T04:12:25.756Z,98.88
2017-05-07T04:13:38.309Z,99.13
2017-05-07T04:14:50.852Z,98.84
2017-05-07T04:16:03.403Z,99.13
2017-05-07T04:17:15.645Z,99.17
2017-05-07T04:18:28.183Z,98.98
2017-05-07T04:19:40.708Z,99.03
2017-05-07T04:20:53.235Z,98.98
2017-05-07T04:22:05.770Z,99.03
2017-05-07T04:23:18.303Z,99.03
2017-05-07T04:24:30.812Z,99.03
2017-05-07T04:25:43.333Z,99.03
2017-05-07T04:26:55.883Z,99.03
2017-05-07T04:28:08.404Z,99.32
2017-05-07T04:29:20.953Z,99.32
2017-05-07T04:30:33.800Z,99.03
2017-05-07T04:31:46.362Z,99.13
2017-05-07T04:32:58.891Z,99.22
2017-05-07T04:34:11.433Z,99.03
2017-05-07T04:35:23.983Z,99.03
2017-05-07T04:36:36.475Z,99.03
2017-05-07T04:37:48.721Z,99.03
2017-05-07T04:39:01.238Z,99.03
2017-05-07T04:40:13.748Z,99.03
2017-05-07T04:41:26.608Z,98.94
2017-05-07T04:42:39.126Z,98.94
2017-05-07T04:43:51.679Z,98.94
2017-05-07T04:45:04.230Z,99.13
2017-05-07T04:46:16.775Z,99.22
2017-05-07T04:47:29.342Z,99.32
2017-05-07T04:48:41.888Z,98.84
2017-05-07T04:49:54.479Z,98.94
2017-05-07T04:51:06.709Z,98.84
2017-05-07T04:52:19.255Z,98.84
2017-05-07T04:53:31.825Z,98.46
2017-05-07T04:54:44.370Z,98.94
2017-05-07T04:55:56.938Z,98.55
2017-05-07T04:57:09.451Z,98.55
2017-05-07T04:58:21.972Z,98.36
2017-05-07T04:59:34.493Z,98.74
2017-05-07T05:00:47.015Z,98.65
2017-05-07T05:01:59.261Z,98.55
2017-05-07T05:03:12.093Z,98.74
2017-05-07T05:04:24.630Z,98.65
2017-05-07T05:05:37.176Z,98.27
2017-05-07T05:06:49.747Z,98.46
2017-05-07T05:08:02.268Z,98.65
2017-05-07T05:09:13.899Z,98.55
2017-05-07T05:10:26.417Z,98.55
2017-05-07T05:11:38.688Z,98.55
2017-05-07T05:12:51.231Z,98.55
2017-05-07T05:14:03.773Z,98.6
2017-05-07T05:15:15.723Z,98.55
2017-05-07T05:16:28.262Z,98.36
2017-05-07T05:17:40.469Z,98.27
2017-05-07T05:18:53.053Z,98.36
2017-05-07T05:20:05.557Z,98.32
2017-05-07T05:21:17.798Z,98.51
2017-05-07T05:22:30.320Z,98.22
2017-05-07T05:23:42.571Z,98.22
2017-05-07T05:24:55.392Z,98.36
2017-05-07T05:26:07.610Z,98.6
2017-05-07T05:27:19.557Z,98.51
2017-05-07T05:28:31.799Z,98.6
2017-05-07T05:29:44.349Z,98.6
2017-05-07T05:30:56.896Z,98.41
2017-05-07T05:32:09.433Z,98.7
2017-05-07T05:33:21.978Z,98.51
2017-05-07T05:34:34.499Z,98.6
2017-05-07T05:35:46.704Z,98.51
2017-05-07T05:36:59.246Z,98.6
2017-05-07T05:38:11.771Z,98.32
2017-05-07T05:39:24.288Z,98.13
2017-05-07T05:40:36.840Z,98.03
2017-05-07T05:41:49.375Z,98.13
2017-05-07T05:43:01.884Z,98.32
2017-05-07T05:44:14.150Z,98.32
2017-05-07T05:45:26.695Z,97.75
2017-05-07T05:46:38.938Z,97.89
2017-05-07T05:47:51.479Z,97.8
2017-05-07T05:49:04.014Z,97.7
2017-05-07T05:50:16.257Z,97.89
2017-05-07T05:51:28.771Z,97.03
2017-05-07T05:52:41.300Z,97.41
2017-05-07T05:53:53.838Z,97.41
2017-05-07T05:55:06.385Z,97.41
2017-05-07T05:56:18.601Z,97.41
2017-05-07T05:57:31.381Z,96.94
2017-05-07T05:58:43.929Z,96.75
2017-05-07T05:59:56.472Z,96.46
2017-05-07T06:01:09.021Z,96.46
2017-05-07T06:02:21.264Z,96.32
2017-05-07T06:03:33.814Z,96.13
2017-05-07T06:04:46.030Z,96.41
2017-05-07T06:05:58.530Z,96.22
2017-05-07T06:07:10.817Z,95.65
2017-05-07T06:08:23.361Z,95.65
2017-05-07T06:09:35.914Z,95.94
2017-05-07T06:10:47.835Z,95.65
2017-05-07T06:12:00.374Z,95.51
2017-05-07T06:13:12.907Z,95.61
2017-05-07T06:14:25.476Z,95.75
2017-05-07T06:15:38.017Z,95.75
2017-05-07T06:16:50.242Z,95.56
2017-05-07T06:18:02.507Z,96.27
2017-05-07T06:19:15.049Z,95.98
2017-05-07T06:20:27.273Z,96.27
2017-05-07T06:21:39.797Z,96.27
2017-05-07T06:22:52.011Z,96.27
2017-05-07T06:24:04.565Z,96.36
2017-05-07T06:25:16.788Z,96.46
2017-05-07T06:26:28.699Z,95.7
2017-05-07T06:27:40.931Z,96.46
2017-05-07T06:28:53.451Z,96.17
2017-05-07T06:30:06.298Z,96.36
2017-05-07T06:31:18.199Z,96.17
2017-05-07T06:32:30.754Z,96.36
2017-05-07T06:33:42.714Z,96.27
2017-05-07T06:34:55.253Z,96.36
2017-05-07T06:36:07.782Z,96.27
2017-05-07T06:37:20.022Z,96.46
2017-05-07T06:38:32.247Z,96.46
2017-05-07T06:39:44.479Z,95.61
2017-05-07T06:40:57.307Z,95.79
2017-05-07T06:42:09.552Z,95.89
2017-05-07T06:43:21.475Z,95.89
2017-05-07T06:44:34.021Z,95.94
2017-05-07T06:45:45.940Z,95.65
2017-05-07T06:46:58.481Z,95.46
2017-05-07T06:48:10.979Z,95.56
2017-05-07T06:49:23.512Z,95.84
2017-05-07T06:50:35.742Z,95.08
2017-05-07T06:51:48.247Z,95.08
2017-05-07T06:53:00.771Z,95.08
2017-05-07T06:54:12.983Z,94.41
2017-05-07T06:55:25.213Z,94.51
2017-05-07T06:56:37.777Z,94.6
2017-05-07T06:57:50.305Z,94.32
2017-05-07T06:59:02.851Z,94.65
2017-05-07T07:00:15.121Z,94.56
2017-05-07T07:01:27.681Z,94.46
2017-05-07T07:02:40.215Z,94.65
2017-05-07T07:03:52.451Z,94.65
2017-05-07T07:05:04.971Z,94.36
2017-05-07T07:06:16.902Z,94.65
2017-05-07T07:07:29.114Z,94.65
2017-05-07T07:08:41.634Z,94.46
2017-05-07T07:09:54.164Z,94.56
2017-05-07T07:11:06.723Z,94.56
2017-05-07T07:12:18.977Z,94.56
2017-05-07T07:13:31.199Z,94.65
2017-05-07T07:14:43.421Z,94.65
2017-05-07T07:15:55.969Z,94.65
2017-05-07T07:17:08.477Z,94.32
2017-05-07T07:18:20.710Z,95.12
2017-05-07T07:19:33.245Z,95.12
2017-05-07T07:20:45.468Z,94.46
2017-05-07T07:21:58.019Z,94.56
2017-05-07T07:23:09.972Z,95.03
2017-05-07T07:24:22.508Z,94.65
2017-05-07T07:25:35.037Z,93.84
2017-05-07T07:26:47.569Z,93.65
2017-05-07T07:28:00.070Z,93.07
2017-05-07T07:29:12.019Z,93.31
2017-05-07T07:30:24.249Z,92.45
2017-05-07T07:31:36.486Z,91.3
2017-05-07T07:32:48.724Z,91.45
2017-05-07T07:34:01.254Z,90.59
2017-05-07T07:35:13.198Z,91.2
2017-05-07T07:36:25.441Z,90.06
2017-05-07T07:37:37.983Z,90.16
2017-05-07T07:38:50.483Z,89.58
2017-05-07T07:40:03.033Z,89.29
2017-05-07T07:41:15.278Z,89.58
2017-05-07T07:42:27.517Z,89.58
2017-05-07T07:43:39.737Z,89.39
2017-05-07T07:44:51.967Z,89.48
2017-05-07T07:46:04.791Z,89.53
2017-05-07T07:47:17.338Z,89.15
2017-05-07T07:48:29.882Z,89.05
2017-05-07T07:49:42.395Z,89.15
2017-05-07T07:50:54.688Z,88.57
2017-05-07T07:52:07.233Z,89.05
2017-05-07T07:53:19.458Z,89.05
2017-05-07T07:54:31.738Z,88.57
2017-05-07T07:55:44.282Z,89.34
2017-05-07T07:56:56.819Z,89.53
2017-05-07T07:58:09.339Z,88.76
2017-05-07T07:59:21.873Z,88.95
2017-05-07T08:00:34.164Z,89.34
2017-05-07T08:01:46.691Z,89.43
2017-05-07T08:02:59.233Z,89.15
2017-05-07T08:04:11.776Z,89.48
2017-05-07T08:05:24.319Z,89.67
2017-05-07T08:06:36.547Z,89.58
2017-05-07T08:07:49.091Z,89.67
2017-05-07T08:09:01.638Z,90.16
2017-05-07T08:10:14.185Z,89.39
2017-05-07T08:11:26.748Z,89.58
2017-05-07T08:12:39.277Z,89.2
2017-05-07T08:13:51.209Z,89.96
2017-05-07T08:15:03.417Z,90.34
2017-05-07T08:16:15.360Z,90.53
2017-05-07T08:17:27.584Z,90.06
2017-05-07T08:18:40.429Z,90.06
2017-05-07T08:19:52.951Z,89.39
2017-05-07T08:21:05.486Z,89.01
2017-05-07T08:22:17.718Z,89.1
2017-05-07T08:23:29.960Z,89.39
2017-05-07T08:24:42.199Z,89.43
2017-05-07T08:25:54.752Z,88.95
2017-05-07T08:27:07.295Z,88.95
2017-05-07T08:28:19.892Z,89.15
2017-05-07T08:29:32.140Z,89.24
2017-05-07T08:30:44.690Z,88.95
2017-05-07T08:31:56.908Z,88.29
2017-05-07T08:33:09.423Z,88.67
2017-05-07T08:34:21.979Z,88
2017-05-07T08:35:34.245Z,88.38
2017-05-07T08:36:46.791Z,88.71
2017-05-07T08:37:59.331Z,89
2017-05-07T08:39:11.878Z,88.04
2017-05-07T08:40:24.724Z,88.04
2017-05-07T08:41:37.254Z,87.99
2017-05-07T08:42:49.195Z,87.23
2017-05-07T08:44:01.733Z,87.13
2017-05-07T08:45:13.988Z,87.41
2017-05-07T08:46:26.538Z,86.94
2017-05-07T08:47:39.111Z,87.03
2017-05-07T08:48:51.379Z,87.03
2017-05-07T08:50:03.923Z,86.65
2017-05-07T08:51:16.462Z,87.13
2017-05-07T08:52:28.688Z,86.84
2017-05-07T08:53:40.951Z,86.27
2017-05-07T08:54:53.508Z,86.27
2017-05-07T08:56:05.743Z,87.03
2017-05-07T08:57:17.671Z,87.13
2017-05-07T08:58:30.188Z,87.23
2017-05-07T08:59:42.442Z,86.65
2017-05-07T09:00:54.955Z,86.84
2017-05-07T09:02:07.475Z,86.46
2017-05-07T09:03:19.447Z,86.88
2017-05-07T09:04:32.019Z,87.17
2017-05-07T09:05:44.572Z,86.41
2017-05-07T09:06:57.109Z,85.35
2017-05-07T09:08:09.059Z,85.25
2017-05-07T09:09:21.598Z,85.06
2017-05-07T09:10:33.855Z,84.05
2017-05-07T09:11:46.392Z,84.44
2017-05-07T09:12:58.910Z,84.72
2017-05-07T09:14:11.460Z,83.58
2017-05-07T09:15:23.713Z,83
2017-05-07T09:16:36.251Z,81.75
2017-05-07T09:17:48.804Z,81.89
2017-05-07T09:19:01.322Z,82.75
2017-05-07T09:20:13.897Z,82.46
2017-05-07T09:21:26.157Z,82.46
2017-05-07T09:22:38.377Z,82.75
2017-05-07T09:23:50.611Z,81.74
2017-05-07T09:25:03.156Z,79.14
2017-05-07T09:26:14.790Z,77.71
2017-05-07T09:27:27.337Z,77.42
2017-05-07T09:28:39.885Z,76.94
2017-05-07T09:29:52.439Z,76.56
2017-05-07T09:31:04.981Z,76.75
2017-05-07T09:32:17.223Z,78.03
2017-05-07T09:33:29.774Z,79.09
2017-05-07T09:34:42.015Z,78.9
2017-05-07T09:35:54.264Z,79.28
2017-05-07T09:37:06.815Z,79.09
2017-05-07T09:38:19.403Z,78.8
2017-05-07T09:39:31.695Z,78.61
2017-05-07T09:40:44.204Z,78.23
2017-05-07T09:41:56.740Z,78.42
2017-05-07T09:43:09.293Z,77.94
2017-05-07T09:44:21.540Z,78.42
2017-05-07T09:45:34.086Z,78.42
2017-05-07T09:46:46.646Z,78.57
2017-05-07T09:47:59.195Z,78.42
2017-05-07T09:49:11.726Z,79.24
2017-05-07T09:50:24.287Z,79.91
2017-05-07T09:51:36.830Z,80.78
2017-05-07T09:52:49.062Z,81.31
2017-05-07T09:54:01.604Z,81.22
2017-05-07T09:55:13.831Z,81.98
2017-05-07T09:56:26.075Z,81.6
2017-05-07T09:57:38.616Z,81.79
2017-05-07T09:58:50.884Z,81.7
2017-05-07T10:00:03.428Z,82.08
2017-05-07T10:01:15.349Z,82.27
2017-05-07T10:02:27.870Z,82.32
2017-05-07T10:03:40.126Z,82.42
2017-05-07T10:04:52.698Z,83
2017-05-07T10:06:04.658Z,83.95
2017-05-07T10:07:16.577Z,84.39
2017-05-07T10:08:28.797Z,84.58
2017-05-07T10:09:40.743Z,85.35
2017-05-07T10:10:52.976Z,85.06
2017-05-07T10:12:05.517Z,85.25
2017-05-07T10:13:17.456Z,85.06
2017-05-07T10:14:29.984Z,85.25
2017-05-07T10:15:42.231Z,84.97
2017-05-07T10:16:54.176Z,84.58
2017-05-07T10:18:06.722Z,84.68
2017-05-07T10:19:19.263Z,84.78
2017-05-07T10:20:31.514Z,85.35
2017-05-07T10:21:44.057Z,85.25
2017-05-07T10:22:56.607Z,84.72
2017-05-07T10:24:09.149Z,83.95
2017-05-07T10:25:21.431Z,82.08
2017-05-07T10:26:33.661Z,80.87
2017-05-07T10:27:46.192Z,79.34
2017-05-07T10:28:58.741Z,77.36
2017-05-07T10:30:11.284Z,75.48
2017-05-07T10:31:23.823Z,74.65
2017-05-07T10:32:36.391Z,72.92
2017-05-07T10:33:48.919Z,72.09
2017-05-07T10:35:01.445Z,70.4
2017-05-07T10:36:13.981Z,68.22
2017-05-07T10:37:26.524Z,66.58
2017-05-07T10:38:39.053Z,65.27
2017-05-07T10:39:51.894Z,64.15
2017-05-07T10:41:04.448Z,64.53
2017-05-07T10:42:17.015Z,62.83
2017-05-07T10:43:29.567Z,60.74
2017-05-07T10:44:42.099Z,60.32
2017-05-07T10:45:54.346Z,61.71
2017-05-07T10:47:06.866Z,61.03
2017-05-07T10:48:19.416Z,59.42
2017-05-07T10:49:31.986Z,58.75
2017-05-07T10:50:44.533Z,58.68
2017-05-07T10:51:57.079Z,57.9
2017-05-07T10:53:09.653Z,56.48
2017-05-07T10:54:21.625Z,56.96
2017-05-07T10:55:34.147Z,56.68
2017-05-07T10:56:46.684Z,56.68
2017-05-07T10:57:58.633Z,56
2017-05-07T10:59:10.558Z,56.29
2017-05-07T11:00:23.105Z,56.39
2017-05-07T11:01:35.655Z,55.74
2017-05-07T11:02:48.192Z,54.1
2017-05-07T11:04:00.738Z,54.19
2017-05-07T11:05:13.016Z,54.13
2017-05-07T11:06:25.293Z,54.61
2017-05-07T11:07:37.854Z,54.51
2017-05-07T11:08:50.425Z,52.41
2017-05-07T11:10:02.965Z,52.24
2017-05-07T11:11:15.218Z,52.24
2017-05-07T11:12:27.163Z,50.04
2017-05-07T11:13:39.726Z,50.24
2017-05-07T11:14:52.281Z,49.29
2017-05-07T11:16:04.826Z,49.19
2017-05-07T11:17:16.776Z,49.56
2017-05-07T11:18:29.340Z,49.27
2017-05-07T11:19:41.913Z,49.56
2017-05-07T11:20:54.463Z,50.33
2017-05-07T11:22:07.026Z,50.6
2017-05-07T11:23:19.601Z,50.24
2017-05-07T11:24:31.864Z,49.37
2017-05-07T11:25:44.423Z,50.92
2017-05-07T11:26:56.964Z,50.33
2017-05-07T11:28:09.210Z,49.29
2017-05-07T11:29:21.776Z,48.81
2017-05-07T11:30:34.328Z,48.74
2017-05-07T11:31:46.570Z,48.93
2017-05-07T11:32:59.119Z,46.99
2017-05-07T11:34:11.393Z,48.06
2017-05-07T11:35:23.964Z,47.77
2017-05-07T11:36:36.506Z,47.5
2017-05-07T11:37:49.070Z,46.53
2017-05-07T11:39:01.625Z,46.07
2017-05-07T11:40:13.862Z,44.9
2017-05-07T11:41:26.407Z,45.12
2017-05-07T11:42:38.340Z,45.34
2017-05-07T11:43:50.902Z,44.85
2017-05-07T11:45:03.470Z,43.51
2017-05-07T11:46:15.691Z,43.34
2017-05-07T11:47:28.273Z,42.18
2017-05-07T11:48:40.845Z,42.36
2017-05-07T11:49:53.415Z,42.87
2017-05-07T11:51:05.703Z,42.18
2017-05-07T11:52:17.933Z,42.36
2017-05-07T11:53:30.499Z,42.97
2017-05-07T11:54:42.772Z,42.95
2017-05-07T11:55:55.037Z,43.26
2017-05-07T11:57:07.607Z,41.32
2017-05-07T11:58:19.876Z,42.18
2017-05-07T11:59:32.422Z,43.55
2017-05-07T12:00:44.942Z,42.19
2017-05-07T12:01:57.475Z,41.51
2017-05-07T12:03:09.762Z,41.32
2017-05-07T12:04:22.039Z,40.93
2017-05-07T12:05:34.609Z,40.44
2017-05-07T12:06:47.172Z,41.05
2017-05-07T12:07:59.721Z,41.24
2017-05-07T12:09:12.263Z,41.22
2017-05-07T12:10:24.842Z,42.18
2017-05-07T12:11:37.409Z,42
2017-05-07T12:12:49.987Z,42.27
2017-05-07T12:14:02.523Z,40.91
2017-05-07T12:15:14.768Z,40.34
2017-05-07T12:16:27.317Z,41.03
2017-05-07T12:17:40.188Z,40.54
2017-05-07T12:18:52.743Z,40.62
2017-05-07T12:20:05.004Z,41.03
2017-05-07T12:21:17.583Z,40.52
2017-05-07T12:22:30.143Z,41.59
2017-05-07T12:23:42.665Z,40.81
2017-05-07T12:24:55.211Z,40.91
2017-05-07T12:26:07.457Z,41.3
2017-05-07T12:27:19.731Z,41.61
2017-05-07T12:28:32.306Z,41.51
2017-05-07T12:29:44.851Z,40.66
2017-05-07T12:30:57.397Z,40.56
2017-05-07T12:32:09.646Z,40.85
2017-05-07T12:33:21.611Z,39.22
2017-05-07T12:34:34.160Z,39.31
2017-05-07T12:35:46.706Z,39.41
2017-05-07T12:36:58.969Z,40.09
2017-05-07T12:38:11.519Z,40.19
2017-05-07T12:39:23.512Z,40.19
2017-05-07T12:40:36.065Z,40
2017-05-07T12:41:48.639Z,39.41
2017-05-07T12:43:00.885Z,39.22
2017-05-07T12:44:13.179Z,39.31
2017-05-07T12:45:25.444Z,39.2
2017-05-07T12:46:37.988Z,39
2017-05-07T12:47:50.251Z,38.98
2017-05-07T12:49:02.515Z,39.84
2017-05-07T12:50:14.759Z,39.84
2017-05-07T12:51:27.001Z,39.94
2017-05-07T12:52:39.540Z,39.94
2017-05-07T12:53:52.099Z,40.33
2017-05-07T12:55:04.345Z,40.64
2017-05-07T12:56:16.908Z,40.64
2017-05-07T12:57:29.453Z,39.37
2017-05-07T12:58:41.996Z,38.81
2017-05-07T12:59:54.542Z,38.42
2017-05-07T13:01:06.791Z,37.84
2017-05-07T13:02:19.045Z,37.34
2017-05-07T13:03:31.620Z,36.96
2017-05-07T13:04:44.203Z,36.85
2017-05-07T13:05:56.778Z,37.04
2017-05-07T13:07:09.018Z,36.73
2017-05-07T13:08:21.547Z,37.12
2017-05-07T13:09:34.117Z,37.41
2017-05-07T13:10:46.639Z,38.09
2017-05-07T13:11:59.199Z,36.93
2017-05-07T13:13:11.484Z,37.51
2017-05-07T13:14:23.726Z,36.63
2017-05-07T13:15:36.299Z,36.15
2017-05-07T13:16:48.574Z,37.02
2017-05-07T13:18:01.113Z,36.83
2017-05-07T13:19:13.688Z,36.42
2017-05-07T13:20:25.922Z,36.15
2017-05-07T13:21:38.176Z,36.34
2017-05-07T13:22:50.724Z,33.81
2017-05-07T13:24:03.285Z,33.62
2017-05-07T13:25:15.842Z,34.4
2017-05-07T13:26:28.077Z,34.79
2017-05-07T13:27:40.609Z,35.17
2017-05-07T13:28:52.869Z,36.24
2017-05-07T13:30:04.801Z,37.02
2017-05-07T13:31:17.068Z,37.22
2017-05-07T13:32:29.657Z,37.32
2017-05-07T13:33:42.214Z,37.32
2017-05-07T13:34:54.776Z,37.8
2017-05-07T13:36:07.356Z,37.22
2017-05-07T13:37:19.623Z,36.63
2017-05-07T13:38:31.545Z,35.86
2017-05-07T13:39:44.093Z,34.97
2017-05-07T13:40:56.660Z,35.17
2017-05-07T13:42:09.210Z,34.88
2017-05-07T13:43:21.781Z,35.47
2017-05-07T13:44:34.351Z,34.09
2017-05-07T13:45:46.886Z,32.44
2017-05-07T13:46:59.415Z,33.01
2017-05-07T13:48:11.980Z,33.49
2017-05-07T13:49:24.537Z,33.59
2017-05-07T13:50:37.105Z,32.32
2017-05-07T13:51:49.644Z,32.81
2017-05-07T13:53:02.199Z,32.81
2017-05-07T13:54:14.449Z,33.2
2017-05-07T13:55:27.004Z,31.95
2017-05-07T13:56:39.233Z,31.65
2017-05-07T13:57:51.506Z,31.82
2017-05-07T13:59:03.777Z,31.82
2017-05-07T14:00:16.338Z,31.92
2017-05-07T14:01:28.892Z,32.1
2017-05-07T14:02:41.465Z,33.26
2017-05-07T14:03:54.032Z,32.49
2017-05-07T14:05:05.979Z,32.76
2017-05-07T14:06:18.553Z,32.28
2017-05-07T14:07:31.096Z,33.25
2017-05-07T14:08:43.041Z,33.25
2017-05-07T14:09:55.594Z,32.86
2017-05-07T14:11:08.183Z,32.67
2017-05-07T14:12:20.432Z,32.76
2017-05-07T14:13:32.379Z,33.92
2017-05-07T14:14:44.974Z,33.73
2017-05-07T14:15:57.534Z,32.87
2017-05-07T14:17:10.080Z,33.73
2017-05-07T14:18:22.304Z,33.64
2017-05-07T14:19:34.546Z,34.22
2017-05-07T14:20:47.080Z,34.22
2017-05-07T14:21:59.639Z,33.54
2017-05-07T14:23:11.888Z,33.64
2017-05-07T14:24:23.838Z,33.73
2017-05-07T14:25:36.381Z,34.22
2017-05-07T14:26:48.961Z,34.59
2017-05-07T14:28:01.559Z,34.51
2017-05-07T14:29:13.815Z,34.49
2017-05-07T14:30:25.760Z,34.69
2017-05-07T14:31:38.298Z,35.46
2017-05-07T14:32:50.852Z,35.35
2017-05-07T14:34:03.380Z,36.02
2017-05-07T14:35:15.055Z,36.58
2017-05-07T14:36:27.615Z,37.55
2017-05-07T14:37:39.871Z,37.82
2017-05-07T14:38:51.789Z,38.29
2017-05-07T14:40:04.331Z,39.64
2017-05-07T14:41:16.586Z,39.62
2017-05-07T14:42:29.130Z,40.38
2017-05-07T14:43:41.701Z,41.13
2017-05-07T14:44:54.236Z,41.81
2017-05-07T14:46:06.482Z,41.78
2017-05-07T14:47:19.035Z,42.66
2017-05-07T14:48:31.285Z,41.88
2017-05-07T14:49:43.856Z,42.36
2017-05-07T14:50:56.429Z,43.21
2017-05-07T14:52:08.675Z,43.31
2017-05-07T14:53:21.215Z,44.35
2017-05-07T14:54:33.439Z,45
2017-05-07T14:55:45.999Z,45.77
2017-05-07T14:56:58.527Z,45.68
2017-05-07T14:58:10.766Z,46.83
2017-05-07T14:59:23.298Z,46.93
2017-05-07T15:00:35.270Z,47.1
2017-05-07T15:01:47.830Z,47
2017-05-07T15:03:00.358Z,46.81
2017-05-07T15:04:12.878Z,47.08
2017-05-07T15:05:25.425Z,47.08
2017-05-07T15:06:37.671Z,48.03
2017-05-07T15:07:49.615Z,48.52
2017-05-07T15:09:00.971Z,48.9
2017-05-07T15:10:13.526Z,49.17
2017-05-07T15:11:26.058Z,50.13
2017-05-07T15:12:38.596Z,50.32
2017-05-07T15:13:51.216Z,50.04
2017-05-07T15:15:03.771Z,49.55
2017-05-07T15:16:16.020Z,49.46
2017-05-07T15:17:28.555Z,49.82
2017-05-07T15:18:40.507Z,50.04
2017-05-07T15:19:51.925Z,50.01
2017-05-07T15:21:03.245Z,50.87
2017-05-07T15:22:15.187Z,50.97
2017-05-07T15:23:26.838Z,50.97
2017-05-07T15:24:38.779Z,51.35
2017-05-07T15:25:50.403Z,51.84
2017-05-07T15:27:02.650Z,52.61
2017-05-07T15:28:14.299Z,52.1
2017-05-07T15:29:25.647Z,52.87
2017-05-07T15:30:37.885Z,53.35
2017-05-07T15:31:50.130Z,51.62
2017-05-07T15:33:01.105Z,51.91
2017-05-07T15:34:12.229Z,52.2